< < Back
Terminal Aerodrome Forecast


Current Version              Previous Versions:   1  2  3  4  5  6  7  8  9  

Terminal Aerodrome Forecast

460
FTUS44 KBMX 061800 AAA
TAFANB
TAF AMD
KANB 061823Z 0618/0718 03005KT P6SM SCT050
     FM062100 33005KT P6SM SKC
     FM070300 00000KT P6SM SKC=

Latest METAR

407
SAUS70 KWBC 070100 RRB
MTRANB
METAR KANB 070053Z AUTO 00000KT 10SM CLR 03/M02 A3045 RMK AO2 SLP324
T00331017


USA.gov is the U.S. government's official web portal to all federal, state and local government web resources and services.